createdAt,value
2023-02-02T00:02:22.458Z,99479.25
2023-02-02T00:04:57.546Z,99470.75
2023-02-02T00:07:32.694Z,99476.84
2023-02-02T00:10:12.932Z,99476.09
2023-02-02T00:12:52.652Z,99470.75
2023-02-02T00:15:35.460Z,99467.53
2023-02-02T00:18:16.062Z,99465.50
2023-02-02T00:20:53.759Z,99454.00
2023-02-02T00:23:31.370Z,99453.63
2023-02-02T00:26:09.647Z,99435.94
2023-02-02T00:28:48.512Z,99435.00
2023-02-02T00:31:26.384Z,99422.19
2023-02-02T00:34:01.636Z,99441.28
2023-02-02T00:36:40.642Z,99437.84
2023-02-02T00:39:18.741Z,99452.25
2023-02-02T00:41:54.444Z,99449.94
2023-02-02T00:44:45.266Z,99435.66
2023-02-02T00:47:26.570Z,99433.91
2023-02-02T00:50:01.916Z,99438.94
2023-02-02T00:52:41.584Z,99452.41
2023-02-02T00:55:30.773Z,99436.56
2023-02-02T00:58:11.060Z,99438.72
2023-02-02T01:00:49.530Z,99451.41
2023-02-02T01:03:27.982Z,99442.75
2023-02-02T01:06:02.824Z,99429.66
2023-02-02T01:08:36.772Z,99434.81
2023-02-02T01:11:12.815Z,99456.84
2023-02-02T01:13:51.213Z,99448.09
2023-02-02T01:16:32.060Z,99438.50
2023-02-02T01:19:16.590Z,99437.94
2023-02-02T01:21:57.496Z,99438.97
2023-02-02T01:24:29.666Z,99442.94
2023-02-02T01:27:07.909Z,99443.28
2023-02-02T01:29:55.045Z,99432.31
2023-02-02T01:32:38.247Z,99447.25
2023-02-02T01:35:20.767Z,99450.84
2023-02-02T01:38:01.471Z,99447.25
2023-02-02T01:40:52.363Z,99461.78
2023-02-02T01:43:52.703Z,99438.22
2023-02-02T01:46:36.097Z,99452.78
2023-02-02T01:49:23.892Z,99449.75
2023-02-02T01:51:56.799Z,99435.44
2023-02-02T01:54:41.975Z,99433.88
2023-02-02T01:57:17.209Z,99436.75
2023-02-02T01:59:55.128Z,99439.31
2023-02-02T02:02:33.724Z,99432.50
2023-02-02T02:05:13.278Z,99434.00
2023-02-02T02:07:53.141Z,99418.34
2023-02-02T02:10:36.736Z,99411.97
2023-02-02T02:13:18.029Z,99414.91
2023-02-02T02:16:18.826Z,99367.56
2023-02-02T02:19:18.319Z,99383.22
2023-02-02T02:22:26.663Z,99375.31
2023-02-02T02:25:39.441Z,99384.13
2023-02-02T02:28:31.199Z,99420.06
2023-02-02T02:31:20.261Z,99417.47
2023-02-02T02:34:14.900Z,99424.38
2023-02-02T02:37:00.247Z,99412.31
2023-02-02T02:39:41.576Z,99413.69
2023-02-02T02:42:24.915Z,99398.03
2023-02-02T02:44:55.025Z,99398.78
2023-02-02T02:47:35.359Z,99390.38
2023-02-02T02:50:11.486Z,99392.56
2023-02-02T02:52:50.904Z,99386.03
2023-02-02T02:55:33.191Z,99388.41
2023-02-02T02:58:22.420Z,99389.97
2023-02-02T03:01:21.323Z,99393.97
2023-02-02T03:04:05.528Z,99404.81
2023-02-02T03:06:54.598Z,99412.66
2023-02-02T03:09:41.907Z,99410.25
2023-02-02T03:12:19.636Z,99400.31
2023-02-02T03:14:54.891Z,99407.50
2023-02-02T03:17:37.580Z,99415.22
2023-02-02T03:20:21.156Z,99395.53
2023-02-02T03:22:53.413Z,99395.97
2023-02-02T03:25:27.986Z,99398.66
2023-02-02T03:28:09.394Z,99393.44
2023-02-02T03:30:49.909Z,99396.91
2023-02-02T03:33:27.136Z,99398.47
2023-02-02T03:35:59.245Z,99404.56
2023-02-02T03:38:36.951Z,99412.50
2023-02-02T03:41:15.567Z,99397.19
2023-02-02T03:43:50.672Z,99402.81
2023-02-02T03:46:30.825Z,99409.53
2023-02-02T03:49:14.555Z,99413.13
2023-02-02T03:51:49.201Z,99415.50
2023-02-02T03:54:23.989Z,99423.72
2023-02-02T03:57:01.713Z,99442.31
2023-02-02T03:59:42.624Z,99430.25
2023-02-02T04:02:17.791Z,99433.38
2023-02-02T04:04:58.351Z,99438.19
2023-02-02T04:07:38.450Z,99421.94
2023-02-02T04:10:22.051Z,99418.63
2023-02-02T04:12:57.386Z,99411.16
2023-02-02T04:15:38.078Z,99412.03
2023-02-02T04:18:21.241Z,99418.13
2023-02-02T04:21:03.507Z,99425.94
2023-02-02T04:23:38.996Z,99429.91
2023-02-02T04:26:17.209Z,99430.59
2023-02-02T04:28:55.083Z,99426.72
2023-02-02T04:31:30.418Z,99430.50
2023-02-02T04:34:09.254Z,99438.16
2023-02-02T04:36:52.426Z,99434.00
2023-02-02T04:39:31.296Z,99430.59
2023-02-02T04:42:09.618Z,99429.41
2023-02-02T04:44:50.678Z,99428.44
2023-02-02T04:47:23.270Z,99430.97
2023-02-02T04:50:00.959Z,99432.97
2023-02-02T04:52:39.685Z,99442.53
2023-02-02T04:55:15.385Z,99440.22
2023-02-02T04:57:53.526Z,99430.44
2023-02-02T05:00:31.686Z,99446.41
2023-02-02T05:03:12.984Z,99435.25
2023-02-02T05:05:53.429Z,99427.47
2023-02-02T05:08:25.584Z,99427.47
2023-02-02T05:11:03.805Z,99427.78
2023-02-02T05:13:44.916Z,99432.28
2023-02-02T05:16:23.720Z,99442.97
2023-02-02T05:19:05.367Z,99438.16
2023-02-02T05:21:45.638Z,99451.34
2023-02-02T05:24:21.354Z,99454.91
2023-02-02T05:26:58.693Z,99458.06
2023-02-02T05:29:29.282Z,99469.25
2023-02-02T05:32:12.829Z,99463.22
2023-02-02T05:34:55.504Z,99465.28
2023-02-02T05:37:30.863Z,99470.34
2023-02-02T05:40:10.295Z,99477.53
2023-02-02T05:42:46.053Z,99469.72
2023-02-02T05:45:27.244Z,99469.06
2023-02-02T05:48:06.174Z,99478.56
2023-02-02T05:50:38.636Z,99480.94
2023-02-02T05:53:21.775Z,99475.47
2023-02-02T05:55:59.981Z,99491.13
2023-02-02T05:58:37.645Z,99489.84
2023-02-02T06:01:13.393Z,99501.81
2023-02-02T06:03:56.540Z,99504.44
2023-02-02T06:06:42.966Z,99513.13
2023-02-02T06:09:32.104Z,99517.28
2023-02-02T06:12:10.592Z,99526.09
2023-02-02T06:14:54.867Z,99534.09
2023-02-02T06:17:27.738Z,99533.47
2023-02-02T06:20:14.908Z,99543.50
2023-02-02T06:22:50.153Z,99532.63
2023-02-02T06:25:36.445Z,99522.81
2023-02-02T06:28:08.586Z,99524.97
2023-02-02T06:30:46.895Z,99538.47
2023-02-02T06:33:30.068Z,99540.63
2023-02-02T06:36:10.295Z,99535.16
2023-02-02T06:38:57.594Z,99528.13
2023-02-02T06:41:36.816Z,99536.25
2023-02-02T06:44:19.358Z,99538.09
2023-02-02T06:46:57.988Z,99540.94
2023-02-02T06:49:39.149Z,99545.47
2023-02-02T06:52:23.048Z,99557.59
2023-02-02T06:55:07.586Z,99563.28
2023-02-02T06:57:51.343Z,99569.41
2023-02-02T07:00:31.228Z,99552.41
2023-02-02T07:03:08.806Z,99569.44
2023-02-02T07:05:50.069Z,99562.91
2023-02-02T07:08:27.928Z,99568.72
2023-02-02T07:11:12.475Z,99564.50
2023-02-02T07:13:55.613Z,99565.28
2023-02-02T07:16:31.696Z,99560.91
2023-02-02T07:19:16.949Z,99563.72
2023-02-02T07:21:57.779Z,99571.53
2023-02-02T07:24:38.264Z,99562.28
2023-02-02T07:27:09.423Z,99563.09
2023-02-02T07:29:44.700Z,99560.00
2023-02-02T07:32:25.508Z,99565.00
2023-02-02T07:35:05.974Z,99570.03
2023-02-02T07:37:45.086Z,99573.00
2023-02-02T07:40:20.270Z,99583.28
2023-02-02T07:43:03.943Z,99582.41
2023-02-02T07:45:44.687Z,99579.00
2023-02-02T07:48:19.864Z,99588.81
2023-02-02T07:50:52.736Z,99590.59
2023-02-02T07:53:30.614Z,99583.34
2023-02-02T07:56:21.224Z,99586.91
2023-02-02T07:58:58.410Z,99591.88
2023-02-02T08:01:39.136Z,99593.78
2023-02-02T08:04:22.746Z,99585.75
2023-02-02T08:07:00.372Z,99582.97
2023-02-02T08:09:35.239Z,99581.31
2023-02-02T08:12:18.922Z,99579.84
2023-02-02T08:14:57.619Z,99578.44
2023-02-02T08:17:40.757Z,99565.53
2023-02-02T08:20:19.498Z,99582.06
2023-02-02T08:23:02.262Z,99581.53
2023-02-02T08:25:36.859Z,99571.19
2023-02-02T08:28:14.591Z,99573.94
2023-02-02T08:30:52.179Z,99573.53
2023-02-02T08:33:29.930Z,99573.16
2023-02-02T08:36:02.721Z,99565.03
2023-02-02T08:38:37.913Z,99564.91
2023-02-02T08:41:18.058Z,99567.31
2023-02-02T08:44:01.793Z,99568.53
2023-02-02T08:46:45.117Z,99573.28
2023-02-02T08:49:26.424Z,99575.16
2023-02-02T08:52:04.216Z,99572.69
2023-02-02T08:54:50.927Z,99577.94
2023-02-02T08:57:25.911Z,99580.25
2023-02-02T09:00:11.989Z,99578.66
2023-02-02T09:02:52.784Z,99592.75
2023-02-02T09:05:30.351Z,99591.47
2023-02-02T09:08:14.992Z,99583.03
2023-02-02T09:10:52.693Z,99582.47
2023-02-02T09:13:30.954Z,99600.47
2023-02-02T09:16:16.622Z,99591.69
2023-02-02T09:18:56.885Z,99591.03
2023-02-02T09:21:37.306Z,99595.94
2023-02-02T09:24:17.067Z,99591.25
2023-02-02T09:26:55.205Z,99604.25
2023-02-02T09:29:35.698Z,99604.53
2023-02-02T09:32:14.267Z,99602.03
2023-02-02T09:34:49.895Z,99613.38
2023-02-02T09:37:25.199Z,99613.09
2023-02-02T09:40:06.412Z,99618.91
2023-02-02T09:43:01.777Z,99622.94
2023-02-02T09:45:48.629Z,99620.06
2023-02-02T09:48:40.184Z,99634.97
2023-02-02T09:51:20.996Z,99623.78
2023-02-02T09:54:01.924Z,99632.59
2023-02-02T09:56:50.855Z,99635.22
2023-02-02T09:59:40.551Z,99625.75
2023-02-02T10:02:28.990Z,99630.72
2023-02-02T10:05:23.257Z,99621.72
2023-02-02T10:08:10.698Z,99618.50
2023-02-02T10:10:50.099Z,99607.75
2023-02-02T10:13:35.283Z,99593.06
2023-02-02T10:16:25.611Z,99602.00
2023-02-02T10:19:12.438Z,99619.94
2023-02-02T10:21:57.988Z,99594.47
2023-02-02T10:24:32.695Z,99598.75
2023-02-02T10:27:18.855Z,99597.72
2023-02-02T10:30:03.676Z,99598.63
2023-02-02T10:33:01.214Z,99603.19
2023-02-02T10:36:03.539Z,99609.47
2023-02-02T10:38:58.469Z,99595.78
2023-02-02T10:41:54.931Z,99604.88
2023-02-02T10:45:00.144Z,99604.09
2023-02-02T10:47:43.345Z,99610.63
2023-02-02T10:50:24.448Z,99599.50
2023-02-02T10:53:10.824Z,99604.72
2023-02-02T10:55:52.626Z,99616.03
2023-02-02T10:59:11.595Z,99605.06
2023-02-02T11:01:52.394Z,99613.31
2023-02-02T11:04:47.700Z,99611.66
2023-02-02T11:07:20.787Z,99615.81
2023-02-02T11:09:58.397Z,99615.47
2023-02-02T11:12:42.673Z,99618.00
2023-02-02T11:15:35.415Z,99604.00
2023-02-02T11:18:28.740Z,99619.78
2023-02-02T11:21:09.701Z,99613.53
2023-02-02T11:24:20.280Z,99612.53
2023-02-02T11:27:30.906Z,99611.63
2023-02-02T11:30:15.824Z,99611.38
2023-02-02T11:32:51.189Z,99613.06
2023-02-02T11:35:35.425Z,99605.38
2023-02-02T11:38:22.053Z,99610.50
2023-02-02T11:41:11.234Z,99618.28
2023-02-02T11:44:01.033Z,99600.53
2023-02-02T11:46:49.255Z,99607.31
2023-02-02T11:49:24.266Z,99617.28
2023-02-02T11:52:15.335Z,99602.19
2023-02-02T11:54:55.163Z,99618.03
2023-02-02T11:57:37.775Z,99623.44
2023-02-02T12:00:27.522Z,99626.53
2023-02-02T12:03:07.749Z,99638.47
2023-02-02T12:05:42.363Z,99620.22
2023-02-02T12:08:16.752Z,99624.81
2023-02-02T12:11:24.643Z,99636.03
2023-02-02T12:14:32.180Z,99643.97
2023-02-02T12:17:33.045Z,99650.47
2023-02-02T12:20:22.840Z,99643.59
2023-02-02T12:23:07.597Z,99647.47
2023-02-02T12:25:49.469Z,99646.75
2023-02-02T12:29:04.553Z,99638.78
2023-02-02T12:32:02.563Z,99644.97
2023-02-02T12:34:57.211Z,99634.75
2023-02-02T12:37:42.734Z,99642.16
2023-02-02T12:40:37.972Z,99636.44
2023-02-02T12:43:16.755Z,99631.50
2023-02-02T12:46:09.458Z,99631.91
2023-02-02T12:48:54.488Z,99639.94
2023-02-02T12:52:14.960Z,99640.59
2023-02-02T12:55:09.970Z,99638.91
2023-02-02T12:58:16.301Z,99647.59
2023-02-02T13:01:07.787Z,99638.91
2023-02-02T13:04:28.515Z,99649.47
2023-02-02T13:07:26.094Z,99643.75
2023-02-02T13:10:23.247Z,99644.53
2023-02-02T13:13:08.659Z,99634.63
2023-02-02T13:15:53.439Z,99654.44
2023-02-02T13:18:40.988Z,99657.38
2023-02-02T13:21:23.795Z,99648.59
2023-02-02T13:24:11.161Z,99647.78
2023-02-02T13:26:55.391Z,99659.19
2023-02-02T13:29:47.235Z,99660.66
2023-02-02T13:32:50.378Z,99663.34
2023-02-02T13:35:35.499Z,99653.47
2023-02-02T13:38:33.376Z,99658.19
2023-02-02T13:41:18.766Z,99665.22
2023-02-02T13:44:18.432Z,99669.41
2023-02-02T13:47:26.848Z,99673.38
2023-02-02T13:50:05.995Z,99669.34
2023-02-02T13:52:53.513Z,99668.56
2023-02-02T13:55:54.558Z,99672.19
2023-02-02T13:58:26.884Z,99676.56
2023-02-02T14:01:16.192Z,99672.84
2023-02-02T14:04:01.351Z,99680.44
2023-02-02T14:07:07.541Z,99682.75
2023-02-02T14:09:45.721Z,99689.50
2023-02-02T14:12:36.030Z,99684.34
2023-02-02T14:15:16.804Z,99688.28
2023-02-02T14:18:00.489Z,99684.78
2023-02-02T14:20:53.502Z,99684.16
2023-02-02T14:23:55.585Z,99684.25
2023-02-02T14:26:52.505Z,99696.63
2023-02-02T14:30:02.325Z,99700.97
2023-02-02T14:32:41.181Z,99695.63
2023-02-02T14:36:00.017Z,99699.94
2023-02-02T14:38:48.485Z,99699.28
2023-02-02T14:42:10.359Z,99698.75
2023-02-02T14:45:11.967Z,99707.44
2023-02-02T14:48:01.431Z,99710.69
2023-02-02T14:50:46.924Z,99711.78
2023-02-02T14:53:49.238Z,99708.19
2023-02-02T14:56:26.201Z,99720.28
2023-02-02T14:59:08.035Z,99718.00
2023-02-02T15:01:50.956Z,99723.69
2023-02-02T15:04:32.279Z,99719.81
2023-02-02T15:07:31.042Z,99727.13
2023-02-02T15:10:09.741Z,99720.13
2023-02-02T15:12:50.402Z,99737.94
2023-02-02T15:15:31.814Z,99729.78
2023-02-02T15:18:12.605Z,99715.91
2023-02-02T15:21:05.237Z,99727.78
2023-02-02T15:23:47.613Z,99740.78
2023-02-02T15:26:31.993Z,99736.19
2023-02-02T15:29:27.535Z,99735.16
2023-02-02T15:32:08.798Z,99743.94
2023-02-02T15:34:54.145Z,99740.34
2023-02-02T15:37:40.184Z,99753.38
2023-02-02T15:40:32.435Z,99755.13
2023-02-02T15:43:14.165Z,99752.91
2023-02-02T15:46:13.915Z,99751.25
2023-02-02T15:49:06.732Z,99765.28
2023-02-02T15:51:48.362Z,99768.03
2023-02-02T15:54:33.549Z,99766.13
2023-02-02T15:57:26.818Z,99762.13
2023-02-02T16:00:05.375Z,99765.56
2023-02-02T16:02:59.480Z,99755.50
2023-02-02T16:05:56.838Z,99763.53
2023-02-02T16:08:41.095Z,99769.28
2023-02-02T16:11:23.887Z,99770.53
2023-02-02T16:14:20.251Z,99768.34
2023-02-02T16:16:57.774Z,99772.28
2023-02-02T16:19:35.461Z,99767.50
2023-02-02T16:22:20.868Z,99766.56
2023-02-02T16:25:00.831Z,99760.72
2023-02-02T16:27:48.517Z,99750.31
2023-02-02T16:30:35.776Z,99755.84
2023-02-02T16:33:28.171Z,99750.19
2023-02-02T16:36:26.670Z,99775.66
2023-02-02T16:39:04.368Z,99782.81
2023-02-02T16:41:37.555Z,99783.78
2023-02-02T16:44:57.042Z,99784.25
2023-02-02T16:47:42.719Z,99792.00
2023-02-02T16:50:34.716Z,99796.72
2023-02-02T16:53:21.309Z,99803.72
2023-02-02T16:55:58.018Z,99803.25
2023-02-02T16:58:36.239Z,99812.47
2023-02-02T17:01:19.467Z,99821.38
2023-02-02T17:04:01.248Z,99822.91
2023-02-02T17:06:52.233Z,99841.00
2023-02-02T17:09:40.891Z,99853.03
2023-02-02T17:12:35.021Z,99848.72
2023-02-02T17:15:36.559Z,99851.41
2023-02-02T17:18:13.766Z,99856.50
2023-02-02T17:20:46.584Z,99857.19
2023-02-02T17:23:24.526Z,99864.72
2023-02-02T17:26:00.520Z,99868.25
2023-02-02T17:28:44.288Z,99866.94
2023-02-02T17:31:22.462Z,99873.50
2023-02-02T17:34:01.093Z,99880.00
2023-02-02T17:36:44.724Z,99885.00
2023-02-02T17:39:22.810Z,99885.03
2023-02-02T17:42:00.483Z,99882.16
2023-02-02T17:44:34.342Z,99892.53
2023-02-02T17:47:13.550Z,99898.06
2023-02-02T17:50:02.992Z,99888.38
2023-02-02T17:52:41.062Z,99897.88
2023-02-02T17:55:35.958Z,99904.22
2023-02-02T17:58:14.984Z,99902.72
2023-02-02T18:01:07.298Z,99908.75
2023-02-02T18:03:54.106Z,99899.38
2023-02-02T18:06:37.719Z,99897.88
2023-02-02T18:09:13.290Z,99911.41
2023-02-02T18:11:48.419Z,99907.13
2023-02-02T18:14:33.076Z,99906.91
2023-02-02T18:17:09.358Z,99905.41
2023-02-02T18:19:47.508Z,99912.09
2023-02-02T18:22:26.219Z,99912.44
2023-02-02T18:24:56.062Z,99903.28
2023-02-02T18:27:29.845Z,99918.97
2023-02-02T18:30:11.467Z,99926.31
2023-02-02T18:32:49.435Z,99925.16
2023-02-02T18:35:28.265Z,99917.47
2023-02-02T18:38:03.545Z,99919.97
2023-02-02T18:40:38.868Z,99914.47
2023-02-02T18:43:21.370Z,99911.63
2023-02-02T18:46:11.261Z,99916.44
2023-02-02T18:48:44.945Z,99911.09
2023-02-02T18:51:26.142Z,99912.94
2023-02-02T18:54:02.572Z,99915.44
2023-02-02T18:56:37.954Z,99911.13
2023-02-02T18:59:15.772Z,99918.44
2023-02-02T19:01:51.609Z,99925.63
2023-02-02T19:04:20.760Z,99919.63
2023-02-02T19:07:31.891Z,99920.44
2023-02-02T19:10:12.842Z,99940.66
2023-02-02T19:13:05.156Z,99938.97
2023-02-02T19:15:48.044Z,99936.00
2023-02-02T19:18:29.094Z,99948.84
2023-02-02T19:21:13.124Z,99950.69
2023-02-02T19:23:49.162Z,99968.38
2023-02-02T19:26:31.622Z,99964.38
2023-02-02T19:29:19.303Z,99968.38
2023-02-02T19:32:15.103Z,99971.22
2023-02-02T19:34:52.244Z,99974.56
2023-02-02T19:37:38.961Z,99980.56
2023-02-02T19:40:14.559Z,99976.06
2023-02-02T19:43:10.270Z,99981.25
2023-02-02T19:45:48.706Z,99980.06
2023-02-02T19:48:23.645Z,99980.91
2023-02-02T19:51:39.836Z,99984.41
2023-02-02T19:54:49.287Z,99994.06
2023-02-02T19:57:46.018Z,99998.25
2023-02-02T20:00:27.395Z,100001.75
2023-02-02T20:03:13.773Z,100001.94
2023-02-02T20:05:54.578Z,100004.56
2023-02-02T20:08:38.401Z,100003.25
2023-02-02T20:11:32.300Z,100004.91
2023-02-02T20:14:28.590Z,100014.63
2023-02-02T20:17:10.540Z,100025.97
2023-02-02T20:19:47.767Z,100043.47
2023-02-02T20:22:35.638Z,100045.16
2023-02-02T20:25:21.590Z,100047.28
2023-02-02T20:27:53.829Z,100063.97
2023-02-02T20:30:32.569Z,100062.31
2023-02-02T20:33:07.763Z,100065.94
2023-02-02T20:35:45.509Z,100065.28
2023-02-02T20:38:45.977Z,100077.78
2023-02-02T20:41:24.607Z,100083.94
2023-02-02T20:44:04.840Z,100082.41
2023-02-02T20:46:51.876Z,100084.72
2023-02-02T20:49:29.131Z,100077.19
2023-02-02T20:52:04.020Z,100077.19
2023-02-02T20:54:42.357Z,100088.22
2023-02-02T20:57:20.507Z,100080.38
2023-02-02T21:00:07.629Z,100088.72
2023-02-02T21:02:48.619Z,100093.88
2023-02-02T21:05:26.551Z,100092.50
2023-02-02T21:08:07.242Z,100099.47
2023-02-02T21:10:50.283Z,100098.53
2023-02-02T21:13:30.173Z,100110.50
2023-02-02T21:16:07.751Z,100116.38
2023-02-02T21:18:47.172Z,100121.53
2023-02-02T21:21:22.668Z,100115.34
2023-02-02T21:24:05.306Z,100113.13
2023-02-02T21:26:38.497Z,100118.97
2023-02-02T21:29:16.117Z,100118.09
2023-02-02T21:31:58.957Z,100131.94
2023-02-02T21:34:37.754Z,100137.91
2023-02-02T21:37:20.598Z,100137.91
2023-02-02T21:40:00.999Z,100138.97
2023-02-02T21:42:40.823Z,100134.97
2023-02-02T21:45:45.304Z,100139.31
2023-02-02T21:48:47.060Z,100133.66
2023-02-02T21:51:38.158Z,100131.09
2023-02-02T21:54:20.243Z,100138.78
2023-02-02T21:57:03.903Z,100145.63
2023-02-02T21:59:39.245Z,100142.81
2023-02-02T22:02:44.154Z,100155.44
2023-02-02T22:05:41.545Z,100156.63
2023-02-02T22:08:31.578Z,100156.44
2023-02-02T22:11:19.881Z,100158.78
2023-02-02T22:13:56.759Z,100168.41
2023-02-02T22:16:41.067Z,100171.91
2023-02-02T22:19:44.142Z,100172.06
2023-02-02T22:22:40.724Z,100170.84
2023-02-02T22:25:31.032Z,100167.03
2023-02-02T22:28:27.428Z,100180.06
2023-02-02T22:31:05.041Z,100178.31
2023-02-02T22:33:48.447Z,100182.47
2023-02-02T22:36:29.565Z,100189.53
2023-02-02T22:39:07.270Z,100208.50
2023-02-02T22:41:44.136Z,100210.03
2023-02-02T22:44:16.256Z,100210.19
2023-02-02T22:47:02.984Z,100221.63
2023-02-02T22:49:43.184Z,100219.56
2023-02-02T22:52:20.839Z,100226.47
2023-02-02T22:54:55.961Z,100215.06
2023-02-02T22:57:25.903Z,100220.63
2023-02-02T23:00:03.969Z,100226.09
2023-02-02T23:02:41.780Z,100230.28
2023-02-02T23:05:17.677Z,100237.69
2023-02-02T23:08:05.934Z,100243.22
2023-02-02T23:10:44.620Z,100237.44
2023-02-02T23:13:22.266Z,100241.13
2023-02-02T23:16:05.526Z,100243.53
2023-02-02T23:18:40.573Z,100248.34
2023-02-02T23:21:16.251Z,100253.38
2023-02-02T23:23:51.490Z,100254.44
2023-02-02T23:26:28.589Z,100251.28
2023-02-02T23:29:03.978Z,100251.91
2023-02-02T23:31:45.768Z,100260.22
2023-02-02T23:34:27.549Z,100261.56
2023-02-02T23:37:05.827Z,100261.34
2023-02-02T23:39:41.507Z,100261.03
2023-02-02T23:42:14.102Z,100260.22
2023-02-02T23:44:49.259Z,100269.25
2023-02-02T23:47:29.814Z,100278.47
2023-02-02T23:50:10.598Z,100272.50
2023-02-02T23:52:48.275Z,100269.00
2023-02-02T23:55:29.959Z,100282.03
2023-02-02T23:58:08.324Z,100268.69
